Map

Track Data

SID SEASON NUMBER BASIN SUBBASIN NAME ISO_TIME NATURE LAT LON WMO_WIND WMO_PRES WMO_AGENCY TRACK_TYPE DIST2LAND LANDFALL IFLAG USA_AGENCY USA_ATCF_ID USA_LAT USA_LON USA_RECORD USA_STATUS USA_WIND USA_PRES USA_SSHS USA_R34_NE USA_R34_SE USA_R34_SW USA_R34_NW USA_R50_NE USA_R50_SE USA_R50_SW USA_R50_NW USA_R64_NE USA_R64_SE USA_R64_SW USA_R64_NW USA_POCI USA_ROCI USA_RMW USA_EYE TOKYO_LAT TOKYO_LON TOKYO_GRADE TOKYO_WIND TOKYO_PRES TOKYO_R50_DIR TOKYO_R50_LONG TOKYO_R50_SHORT TOKYO_R30_DIR TOKYO_R30_LONG TOKYO_R30_SHORT TOKYO_LAND CMA_LAT CMA_LON CMA_CAT CMA_WIND CMA_PRES HKO_LAT HKO_LON HKO_CAT HKO_WIND HKO_PRES NEWDELHI_LAT NEWDELHI_LON NEWDELHI_GRADE NEWDELHI_WIND NEWDELHI_PRES NEWDELHI_CI NEWDELHI_DP NEWDELHI_POCI REUNION_LAT REUNION_LON REUNION_TYPE REUNION_WIND REUNION_PRES REUNION_TNUM REUNION_CI REUNION_RMW REUNION_R34_NE REUNION_R34_SE REUNION_R34_SW REUNION_R34_NW REUNION_R50_NE REUNION_R50_SE REUNION_R50_SW REUNION_R50_NW REUNION_R64_NE REUNION_R64_SE REUNION_R64_SW REUNION_R64_NW BOM_LAT BOM_LON BOM_TYPE BOM_WIND BOM_PRES BOM_TNUM BOM_CI BOM_RMW BOM_R34_NE BOM_R34_SE BOM_R34_SW BOM_R34_NW BOM_R50_NE BOM_R50_SE BOM_R50_SW BOM_R50_NW BOM_R64_NE BOM_R64_SE BOM_R64_SW BOM_R64_NW BOM_ROCI BOM_POCI BOM_EYE BOM_POS_METHOD BOM_PRES_METHOD NADI_LAT NADI_LON NADI_CAT NADI_WIND NADI_PRES WELLINGTON_LAT WELLINGTON_LON WELLINGTON_WIND WELLINGTON_PRES DS824_LAT DS824_LON DS824_STAGE DS824_WIND DS824_PRES TD9636_LAT TD9636_LON TD9636_STAGE TD9636_WIND TD9636_PRES TD9635_LAT TD9635_LON TD9635_WIND TD9635_PRES TD9635_ROCI NEUMANN_LAT NEUMANN_LON NEUMANN_CLASS NEUMANN_WIND NEUMANN_PRES MLC_LAT MLC_LON MLC_CLASS MLC_WIND MLC_PRES USA_GUST BOM_GUST BOM_GUST_PER REUNION_GUST REUNION_GUST_PER USA_SEAHGT USA_SEARAD_NE USA_SEARAD_SE USA_SEARAD_SW USA_SEARAD_NW STORM_SPEED STORM_DIR
1940001S20116 1940 1 SI WA NOT_NAMED 1940-01-01 06:00:00 NR -19.9000 115.500 main 133 133 _____O________ -1 -19.9000 115.500 99 9.90000 1 13
1940001S20116 1940 1 SI WA NOT_NAMED 1940-01-01 09:00:00 NR -19.8614 115.525 main 133 133 _____P________ -1 -19.8614 115.525 99 1 26
1940001S20116 1940 1 SI WA NOT_NAMED 1940-01-01 12:00:00 NR -19.8289 115.543 main 143 138 _____P________ -1 -19.8289 115.543 99 1 19
1940001S20116 1940 1 SI WA NOT_NAMED 1940-01-01 15:00:00 NR -19.8085 115.550 main 138 138 _____P________ -1 -19.8085 115.550 99 0 0
1940001S20116 1940 1 SI WA NOT_NAMED 1940-01-01 18:00:00 NR -19.8063 115.540 main 143 143 _____P________ -1 -19.8063 115.540 99 0 240
1940001S20116 1940 1 SI WA NOT_NAMED 1940-01-01 21:00:00 NR -19.8283 115.505 main 143 133 _____P________ -1 -19.8283 115.505 99 1 231
1940001S20116 1940 1 SI WA NOT_NAMED 1940-01-02 00:00:00 NR -19.8805 115.441 main 139 130 _____P________ -1 -19.8805 115.441 99 2 228
1940001S20116 1940 1 SI WA NOT_NAMED 1940-01-02 03:00:00 NR -19.9691 115.341 main 137 128 _____P________ -1 -19.9691 115.341 99 3 226
1940001S20116 1940 1 SI WA NOT_NAMED 1940-01-02 06:00:00 NR -20.1000 115.200 main 133 129 _____O________ -1 -20.1000 115.200 99 9.90000 4 225
1940001S20116 1940 1 SI WA NOT_NAMED 1940-01-02 09:00:00 NR -20.2762 115.014 main 129 129 _____P________ -1 -20.2762 115.014 99 5 225
1940001S20116 1940 1 SI WA NOT_NAMED 1940-01-02 12:00:00 NR -20.4893 114.790 main 129 116 _____P________ -1 -20.4893 114.790 99 6 224
1940001S20116 1940 1 SI WA NOT_NAMED 1940-01-02 15:00:00 NR -20.7275 114.541 main 119 94 _____P________ -1 -20.7275 114.541 99 7 224
1940001S20116 1940 1 SI WA NOT_NAMED 1940-01-02 18:00:00 NR -20.9797 114.277 main 94 78 _____P________ -1 -20.9797 114.277 99 7 224
1940001S20116 1940 1 SI WA NOT_NAMED 1940-01-02 21:00:00 NR -21.2343 114.010 main 78 49 _____P________ -1 -21.2343 114.010 99 7 224
1940001S20116 1940 1 SI WA NOT_NAMED 1940-01-03 00:00:00 NR -21.4800 113.750 main 54 45 _____P________ -1 -21.4800 113.750 99 7 225
1940001S20116 1940 1 SI WA NOT_NAMED 1940-01-03 03:00:00 NR -21.7056 113.509 main 56 52 _____P________ -1 -21.7056 113.509 99 6 225
1940001S20116 1940 1 SI WA NOT_NAMED 1940-01-03 06:00:00 NR -21.9000 113.300 main 65 65 _____O________ -1 -21.9000 113.300 99 9.90000 5 225
1940001S20116 1940 1 SI WA NOT_NAMED 1940-01-03 09:00:00 NR -22.0547 113.131 main 75 75 _____P________ -1 -22.0547 113.131 99 4 226
1940001S20116 1940 1 SI WA NOT_NAMED 1940-01-03 12:00:00 NR -22.1725 112.999 main 76 76 _____P________ -1 -22.1725 112.999 99 3 226
1940001S20116 1940 1 SI WA NOT_NAMED 1940-01-03 15:00:00 NR -22.2586 112.899 main 79 79 _____P________ -1 -22.2586 112.899 99 2 228
1940001S20116 1940 1 SI WA NOT_NAMED 1940-01-03 18:00:00 NR -22.3184 112.827 main 88 85 _____P________ -1 -22.3184 112.827 99 2 228
1940001S20116 1940 1 SI WA NOT_NAMED 1940-01-03 21:00:00 NR -22.3571 112.776 main 85 85 _____P________ -1 -22.3571 112.776 99 1 230
1940001S20116 1940 1 SI WA NOT_NAMED 1940-01-04 00:00:00 NR -22.3802 112.742 main 95 95 _____P________ -1 -22.3802 112.742 99 1 239
1940001S20116 1940 1 SI WA NOT_NAMED 1940-01-04 03:00:00 NR -22.3927 112.718 main 95 95 _____P________ -1 -22.3927 112.718 99 0 240
1940001S20116 1940 1 SI WA NOT_NAMED 1940-01-04 06:00:00 NR -22.4000 112.700 main 95 _____O________ -1 -22.4000 112.700 99 9.90000 0 0

About IBTrACS Database

This database is a web-friendly format of International Best Track Archive for Climate Stewardship (IBTrACS), a global best track data archive curated by NOAA dating back to 1842.

Updated: 2021-11-26